Time;durP1;ratioP1;P1;durP2;ratioP2;P2;SDS_P1;SDS_P2;PMS_P1;PMS_P2;Temp;Humidity;BMP_temperature;BMP_pressure;BME280_temperature;BME280_humidity;BME280_pressure;Samples;Min_cycle;Max_cycle;Signal;HPM_P1;HPM_P2
2021/10/11 00:00:24;;;;;;;13.07;10.57;;;6.70;99.90;;;;;;4946943;28;20193;-56
2021/10/11 00:02:50;;;;;;;16.00;12.90;;;6.70;99.90;;;;;;4952538;28;20776;-56
2021/10/11 00:05:16;;;;;;;12.23;11.02;;;6.90;99.90;;;;;;4954667;28;20315;-56
2021/10/11 00:07:42;;;;;;;14.80;12.13;;;6.80;99.90;;;;;;4950689;28;20227;-56
2021/10/11 00:10:08;;;;;;;13.27;11.07;;;6.80;99.90;;;;;;4949936;28;20633;-56
2021/10/11 00:12:35;;;;;;;15.43;12.68;;;6.60;99.90;;;;;;4954874;28;20734;-56
2021/10/11 00:15:01;;;;;;;13.10;11.70;;;6.70;99.90;;;;;;4949306;28;20200;-56
2021/10/11 00:17:26;;;;;;;17.00;13.35;;;6.60;99.90;;;;;;4954032;28;20189;-56
2021/10/11 00:19:52;;;;;;;13.67;12.23;;;6.60;99.90;;;;;;4950181;28;20619;-57
2021/10/11 00:22:19;;;;;;;13.27;11.83;;;6.50;99.90;;;;;;4954276;28;20231;-55
2021/10/11 00:24:45;;;;;;;13.27;11.88;;;6.00;99.90;;;;;;4948948;28;20217;-56
2021/10/11 00:27:10;;;;;;;15.10;11.80;;;6.50;99.90;;;;;;4954615;28;20200;-56
2021/10/11 00:29:36;;;;;;;12.60;11.30;;;6.60;99.90;;;;;;4951546;28;20245;-55
2021/10/11 00:32:03;;;;;;;15.90;11.80;;;6.70;99.90;;;;;;4955287;28;20960;-56
2021/10/11 00:34:30;;;;;;;11.93;10.57;;;6.50;99.90;;;;;;4953789;28;20718;-56
2021/10/11 00:36:56;;;;;;;13.95;12.45;;;6.40;99.90;;;;;;4953182;28;20278;-56
2021/10/11 00:39:22;;;;;;;15.00;13.10;;;6.50;99.90;;;;;;4955473;28;20238;-56
2021/10/11 00:41:47;;;;;;;14.95;11.40;;;6.40;99.90;;;;;;4953281;28;20440;-56
2021/10/11 00:44:13;;;;;;;13.80;12.00;;;6.00;99.90;;;;;;4953961;28;20191;-56
2021/10/11 00:46:38;;;;;;;16.70;13.13;;;6.30;99.90;;;;;;4953139;28;20654;-56
2021/10/11 00:49:04;;;;;;;14.73;13.20;;;6.60;99.90;;;;;;4953610;28;20200;-56
2021/10/11 00:51:30;;;;;;;13.40;11.17;;;6.00;99.90;;;;;;4953779;28;20184;-56
2021/10/11 00:53:56;;;;;;;15.73;11.97;;;6.40;99.90;;;;;;4949668;28;20283;-56
2021/10/11 00:56:22;;;;;;;15.65;11.48;;;6.10;99.90;;;;;;4953640;28;20843;-56
2021/10/11 00:58:48;;;;;;;15.65;12.63;;;6.10;99.90;;;;;;4953769;28;20218;-57
2021/10/11 01:01:14;;;;;;;16.93;12.93;;;6.20;99.90;;;;;;4952330;28;20200;-56
2021/10/11 01:03:40;;;;;;;16.10;12.90;;;6.20;99.90;;;;;;4953795;28;20781;-56
2021/10/11 01:06:06;;;;;;;14.47;12.47;;;6.30;99.90;;;;;;4953779;29;20212;-56
2021/10/11 01:08:31;;;;;;;13.13;11.40;;;6.60;99.90;;;;;;4951409;28;20207;-56
2021/10/11 01:10:58;;;;;;;16.13;12.90;;;6.30;99.90;;;;;;4951977;29;20459;-56
2021/10/11 01:13:23;;;;;;;15.63;12.82;;;6.40;99.90;;;;;;4953726;28;20943;-56
2021/10/11 01:15:49;;;;;;;14.43;12.20;;;6.40;99.90;;;;;;4950742;28;20207;-56
2021/10/11 01:18:14;;;;;;;14.80;12.60;;;6.50;99.90;;;;;;4953292;28;20627;-55
2021/10/11 01:20:40;;;;;;;15.83;14.00;;;6.20;99.90;;;;;;4947333;28;20386;-56
2021/10/11 01:23:06;;;;;;;16.90;12.47;;;6.40;99.90;;;;;;4953478;28;20628;-56
2021/10/11 01:25:32;;;;;;;18.08;14.30;;;6.40;99.90;;;;;;4951504;28;20215;-56
2021/10/11 01:27:58;;;;;;;17.80;15.83;;;6.20;99.90;;;;;;4948841;28;20421;-55
2021/10/11 01:30:24;;;;;;;21.27;17.00;;;6.40;99.90;;;;;;4946765;28;20944;-55
2021/10/11 01:32:50;;;;;;;18.30;14.93;;;6.00;99.90;;;;;;4953565;29;20480;-56
2021/10/11 01:35:16;;;;;;;19.87;16.10;;;6.30;99.90;;;;;;4954105;28;20465;-56
2021/10/11 01:37:42;;;;;;;18.27;15.00;;;6.30;99.90;;;;;;4952759;28;20451;-56
2021/10/11 01:40:09;;;;;;;17.20;14.27;;;5.80;99.90;;;;;;4951678;28;20196;-56
2021/10/11 01:42:35;;;;;;;15.02;13.45;;;6.30;99.90;;;;;;4961592;28;20190;-56
2021/10/11 01:45:03;;;;;;;16.33;14.40;;;6.30;99.90;;;;;;4950314;28;20219;-56
2021/10/11 01:47:28;;;;;;;17.60;14.75;;;6.30;99.90;;;;;;4953193;28;20212;-56
2021/10/11 01:49:55;;;;;;;16.90;13.23;;;6.30;99.90;;;;;;4955650;28;20204;-56
2021/10/11 01:52:21;;;;;;;19.42;13.77;;;6.60;99.90;;;;;;4956430;28;20211;-56
2021/10/11 01:54:46;;;;;;;17.73;15.18;;;6.60;99.90;;;;;;4948480;28;20737;-57
2021/10/11 01:57:13;;;;;;;16.47;13.73;;;6.30;99.90;;;;;;4952647;28;20297;-56
2021/10/11 01:59:38;;;;;;;16.75;14.25;;;6.30;99.90;;;;;;4949873;28;20223;-55
2021/10/11 02:02:04;;;;;;;15.97;13.40;;;6.00;99.90;;;;;;4952242;28;20729;-56
2021/10/11 02:04:30;;;;;;;18.27;13.90;;;6.30;99.90;;;;;;4954621;28;20846;-56
2021/10/11 02:06:57;;;;;;;17.27;13.97;;;6.30;99.90;;;;;;4951930;28;20282;-55
2021/10/11 02:09:23;;;;;;;17.63;15.10;;;6.30;99.90;;;;;;4946589;28;20493;-55
2021/10/11 02:11:49;;;;;;;17.95;14.68;;;6.00;99.90;;;;;;4949003;29;20196;-56
2021/10/11 02:14:14;;;;;;;16.87;14.33;;;6.50;99.90;;;;;;4952261;28;20202;-56
2021/10/11 02:16:40;;;;;;;17.93;14.50;;;6.50;99.90;;;;;;4946996;28;20200;-56
2021/10/11 02:19:06;;;;;;;14.80;12.60;;;6.40;99.90;;;;;;4945836;28;20211;-56
2021/10/11 02:21:32;;;;;;;16.30;13.60;;;6.30;99.90;;;;;;4951752;29;21113;-56
2021/10/11 02:23:57;;;;;;;17.83;13.37;;;6.40;99.90;;;;;;4952423;28;20211;-56
2021/10/11 02:26:23;;;;;;;17.47;13.77;;;6.30;99.90;;;;;;4943132;28;20475;-56
2021/10/11 02:28:50;;;;;;;16.95;13.57;;;6.10;99.90;;;;;;4955059;28;20246;-56
2021/10/11 02:31:17;;;;;;;17.83;14.57;;;6.30;99.90;;;;;;4949405;28;20228;-56
2021/10/11 02:33:44;;;;;;;13.65;12.23;;;6.00;99.90;;;;;;4951385;28;20188;-56
2021/10/11 02:36:10;;;;;;;16.38;12.70;;;5.80;99.90;;;;;;4951736;28;20282;-56
2021/10/11 02:38:36;;;;;;;14.32;12.82;;;5.80;99.90;;;;;;4950458;28;20212;-55
2021/10/11 02:41:02;;;;;;;15.77;13.63;;;6.00;99.90;;;;;;4951623;29;20534;-56
2021/10/11 02:43:28;;;;;;;19.85;13.48;;;6.00;99.90;;;;;;4952053;28;20506;-56
2021/10/11 02:45:54;;;;;;;16.87;14.40;;;5.80;99.90;;;;;;4951346;28;20243;-56
2021/10/11 02:48:19;;;;;;;19.97;13.20;;;5.70;99.90;;;;;;4951058;28;20210;-56
2021/10/11 02:50:45;;;;;;;16.30;14.60;;;5.90;99.90;;;;;;4951947;29;20495;-56
2021/10/11 02:53:10;;;;;;;15.13;13.00;;;6.00;99.90;;;;;;4950654;28;20765;-56
2021/10/11 02:55:36;;;;;;;19.67;14.30;;;5.90;99.90;;;;;;4957048;28;20259;-56
2021/10/11 02:58:02;;;;;;;15.73;13.30;;;6.20;99.90;;;;;;4962288;28;20349;-57
2021/10/11 03:00:28;;;;;;;17.65;13.85;;;5.90;99.90;;;;;;4949005;28;20194;-56
2021/10/11 03:02:53;;;;;;;14.37;12.87;;;6.10;99.90;;;;;;4951872;28;20710;-56
2021/10/11 03:05:19;;;;;;;16.37;12.90;;;6.10;99.90;;;;;;4952393;28;20229;-55
2021/10/11 03:07:45;;;;;;;15.27;13.17;;;6.00;99.90;;;;;;4951738;28;20221;-56
2021/10/11 03:10:10;;;;;;;15.07;13.47;;;5.90;99.90;;;;;;4939656;28;20190;-56
2021/10/11 03:12:36;;;;;;;15.80;13.00;;;6.00;99.90;;;;;;4951373;28;20319;-56
2021/10/11 03:15:06;;;;;;;14.97;12.33;;;5.80;99.90;;;;;;4946255;28;20710;-55
2021/10/11 03:17:33;;;;;;;16.73;13.55;;;5.90;99.90;;;;;;4950468;28;20458;-56
2021/10/11 03:19:58;;;;;;;17.58;15.43;;;5.80;99.90;;;;;;4958815;28;20213;-55
2021/10/11 03:22:24;;;;;;;16.30;12.63;;;6.00;99.90;;;;;;4952533;28;20249;-56
2021/10/11 03:24:50;;;;;;;18.13;13.90;;;6.10;99.90;;;;;;4944405;28;20225;-56
2021/10/11 03:27:15;;;;;;;18.10;14.20;;;6.00;99.90;;;;;;4953488;28;20238;-56
2021/10/11 03:29:41;;;;;;;14.33;12.50;;;6.00;99.90;;;;;;4955573;28;20205;-56
2021/10/11 03:32:06;;;;;;;16.40;13.50;;;5.80;99.90;;;;;;4957639;28;20184;-55
2021/10/11 03:34:32;;;;;;;16.73;14.00;;;5.90;99.90;;;;;;4955492;28;20219;-56
2021/10/11 03:36:58;;;;;;;18.30;13.70;;;6.10;99.90;;;;;;4955716;28;20190;-56
2021/10/11 03:39:24;;;;;;;17.70;13.23;;;5.90;99.90;;;;;;4947227;28;20202;-56
2021/10/11 03:41:49;;;;;;;15.17;13.13;;;6.20;99.90;;;;;;4954786;28;20218;-56
2021/10/11 03:44:15;;;;;;;15.60;13.30;;;6.00;99.90;;;;;;4954794;28;20529;-56
2021/10/11 03:46:41;;;;;;;18.33;14.30;;;6.30;99.90;;;;;;4950693;28;20694;-56
2021/10/11 03:49:06;;;;;;;15.90;13.60;;;5.70;99.90;;;;;;4954771;28;20238;-55
2021/10/11 03:51:32;;;;;;;16.53;14.23;;;5.90;99.90;;;;;;4955124;29;20271;-56
2021/10/11 03:53:58;;;;;;;17.83;14.80;;;5.90;99.90;;;;;;4948721;29;20181;-56
2021/10/11 03:56:24;;;;;;;19.58;14.00;;;5.30;99.90;;;;;;4954758;28;20195;-56
2021/10/11 03:58:50;;;;;;;17.17;15.00;;;5.60;99.90;;;;;;4954192;28;20280;-55
2021/10/11 04:01:16;;;;;;;16.23;14.43;;;5.80;99.90;;;;;;4947430;28;20295;-56
2021/10/11 04:03:42;;;;;;;17.90;14.50;;;5.70;99.90;;;;;;4955229;29;20197;-56
2021/10/11 04:06:07;;;;;;;17.52;14.93;;;6.00;99.90;;;;;;4955143;28;20238;-56
2021/10/11 04:08:38;;;;;;;17.33;14.63;;;5.70;99.90;;;;;;4954456;28;20689;-56
2021/10/11 04:13:42;;;;;;;18.35;15.07;;;5.80;99.90;;;;;;4954909;28;20605;-56
2021/10/11 04:16:09;;;;;;;16.02;14.05;;;5.80;99.90;;;;;;4947726;28;20194;-56
2021/10/11 04:18:34;;;;;;;17.25;15.07;;;6.00;99.90;;;;;;4947009;28;20260;-56
2021/10/11 04:21:01;;;;;;;17.80;15.17;;;5.80;99.90;;;;;;4952637;28;20209;-56
2021/10/11 04:23:27;;;;;;;16.52;14.27;;;5.80;99.90;;;;;;4953118;28;20190;-56
2021/10/11 04:25:53;;;;;;;21.15;15.50;;;5.80;99.90;;;;;;4953401;28;20213;-56
2021/10/11 04:28:19;;;;;;;18.10;15.27;;;5.80;99.90;;;;;;4948314;28;20592;-56
2021/10/11 04:30:45;;;;;;;17.80;15.20;;;6.00;99.90;;;;;;4954722;28;20197;-56
2021/10/11 04:33:11;;;;;;;16.77;15.02;;;5.80;99.90;;;;;;4952903;28;20190;-56
2021/10/11 04:35:38;;;;;;;19.08;14.48;;;5.90;99.90;;;;;;4952922;28;20328;-56
2021/10/11 04:38:04;;;;;;;21.80;15.40;;;5.40;99.90;;;;;;4952884;28;20586;-56
2021/10/11 04:40:30;;;;;;;18.42;15.35;;;5.60;99.90;;;;;;4945682;28;20191;-55
2021/10/11 04:42:56;;;;;;;27.00;15.75;;;5.70;99.90;;;;;;4956284;28;20554;-56
2021/10/11 04:45:28;;;;;;;17.50;14.40;;;6.00;99.90;;;;;;4953199;28;20219;-56
2021/10/11 04:47:58;;;;;;;17.30;13.73;;;6.00;99.90;;;;;;4956666;28;20186;-55
2021/10/11 04:50:24;;;;;;;16.55;14.63;;;5.70;99.90;;;;;;4950910;28;20241;-56
2021/10/11 04:52:50;;;;;;;16.13;14.43;;;5.60;99.90;;;;;;4959519;28;20193;-56
2021/10/11 04:55:16;;;;;;;20.00;15.03;;;5.70;99.90;;;;;;4954273;28;20720;-56
2021/10/11 04:57:41;;;;;;;17.10;15.30;;;5.50;99.90;;;;;;4954953;28;20272;-56
2021/10/11 05:00:08;;;;;;;18.80;14.57;;;5.70;99.90;;;;;;4947077;28;20226;-56
2021/10/11 05:02:33;;;;;;;15.68;13.73;;;5.70;99.90;;;;;;4951907;29;20288;-56
2021/10/11 05:04:59;;;;;;;20.50;15.30;;;5.80;99.90;;;;;;4946915;28;20302;-56
2021/10/11 05:07:25;;;;;;;18.13;15.50;;;5.80;99.90;;;;;;4945744;29;20654;-57
2021/10/11 05:09:50;;;;;;;17.30;14.80;;;6.10;99.90;;;;;;4950979;28;20259;-58
2021/10/11 05:12:16;;;;;;;16.93;14.93;;;6.40;99.90;;;;;;4960381;28;20184;-58
2021/10/11 05:14:42;;;;;;;17.30;14.47;;;5.90;99.90;;;;;;4946396;28;20523;-57
2021/10/11 05:17:07;;;;;;;20.73;14.77;;;5.70;99.90;;;;;;4953835;28;20672;-57
2021/10/11 05:19:33;;;;;;;19.27;15.40;;;5.60;99.90;;;;;;4954373;28;20261;-56
2021/10/11 05:21:59;;;;;;;18.13;14.90;;;5.70;99.90;;;;;;4951785;29;20212;-57
2021/10/11 05:24:25;;;;;;;16.83;14.40;;;6.00;99.90;;;;;;4951846;28;20187;-56
2021/10/11 05:26:52;;;;;;;17.90;14.20;;;5.80;99.90;;;;;;4951313;28;20270;-57
2021/10/11 05:29:19;;;;;;;19.02;15.95;;;5.90;99.90;;;;;;4949613;28;20514;-57
2021/10/11 05:31:45;;;;;;;19.95;16.30;;;6.00;99.90;;;;;;4953412;28;20605;-56
2021/10/11 05:34:10;;;;;;;17.90;14.85;;;6.10;99.90;;;;;;4948648;28;20190;-57
2021/10/11 05:36:36;;;;;;;18.20;14.90;;;6.00;99.90;;;;;;4949979;29;20210;-56
2021/10/11 05:39:02;;;;;;;18.27;15.47;;;6.00;99.90;;;;;;4953297;28;20636;-57
2021/10/11 05:41:28;;;;;;;17.33;15.45;;;6.10;99.90;;;;;;4952677;28;20222;-55
2021/10/11 05:43:53;;;;;;;19.90;16.57;;;5.90;99.90;;;;;;4947670;28;20678;-61
2021/10/11 05:46:19;;;;;;;20.93;15.57;;;5.90;99.90;;;;;;4952087;28;20296;-59
2021/10/11 05:48:45;;;;;;;18.87;14.83;;;6.00;99.90;;;;;;4948854;28;20272;-62
2021/10/11 05:51:10;;;;;;;18.20;15.70;;;5.80;99.90;;;;;;4954352;28;20523;-55
2021/10/11 05:53:36;;;;;;;18.60;15.13;;;5.80;99.90;;;;;;4950179;28;20620;-55
2021/10/11 05:56:02;;;;;;;17.90;14.90;;;5.70;99.90;;;;;;4951882;28;20292;-57
2021/10/11 05:58:27;;;;;;;17.13;14.40;;;5.70;99.90;;;;;;4957298;28;20206;-54
2021/10/11 06:00:53;;;;;;;16.70;14.93;;;5.80;99.90;;;;;;4951047;28;20871;-54
2021/10/11 06:03:19;;;;;;;21.90;16.10;;;5.90;99.90;;;;;;4950944;28;20196;-55
2021/10/11 06:05:44;;;;;;;20.60;15.80;;;5.30;99.90;;;;;;4952734;28;20378;-54
2021/10/11 06:08:10;;;;;;;17.50;14.80;;;5.70;99.90;;;;;;4951922;28;20220;-54
2021/10/11 06:10:37;;;;;;;22.10;16.93;;;6.00;99.90;;;;;;4946956;28;20211;-54
2021/10/11 06:13:02;;;;;;;20.55;15.43;;;5.80;99.90;;;;;;4949962;28;20272;-55
2021/10/11 06:15:28;;;;;;;20.30;15.90;;;6.00;99.90;;;;;;4949501;28;20268;-55
2021/10/11 06:17:54;;;;;;;21.37;16.53;;;6.10;99.90;;;;;;4947730;28;20200;-56
2021/10/11 06:20:20;;;;;;;21.40;17.50;;;5.80;99.90;;;;;;4950046;28;20981;-55
2021/10/11 06:22:45;;;;;;;20.53;16.50;;;5.80;99.90;;;;;;4954210;28;20195;-56
2021/10/11 06:25:11;;;;;;;18.53;15.67;;;6.00;99.90;;;;;;4950741;28;20470;-57
2021/10/11 06:27:38;;;;;;;18.20;15.20;;;6.10;99.90;;;;;;4955649;28;20599;-57
2021/10/11 06:30:05;;;;;;;18.10;15.70;;;5.40;99.90;;;;;;4948652;28;20210;-55
2021/10/11 06:32:30;;;;;;;24.52;16.42;;;6.40;99.90;;;;;;4948277;29;20266;-54
2021/10/11 06:34:56;;;;;;;18.50;15.00;;;6.30;99.90;;;;;;4955501;28;20674;-55
2021/10/11 06:37:22;;;;;;;19.50;15.10;;;6.60;99.90;;;;;;4954351;28;20189;-54
2021/10/11 06:39:48;;;;;;;17.67;15.80;;;6.40;99.90;;;;;;4950275;28;20201;-54
2021/10/11 06:42:14;;;;;;;19.08;14.90;;;6.60;99.90;;;;;;4953375;28;20521;-54
2021/10/11 06:44:39;;;;;;;19.70;15.47;;;6.50;99.90;;;;;;4952422;28;20865;-54
2021/10/11 06:47:05;;;;;;;18.27;15.10;;;6.60;99.90;;;;;;4951277;28;20214;-54
2021/10/11 06:49:31;;;;;;;17.80;15.45;;;6.70;99.90;;;;;;4949288;28;20189;-55
2021/10/11 06:51:57;;;;;;;21.50;16.00;;;6.00;99.90;;;;;;4940325;28;20642;-53
2021/10/11 06:54:23;;;;;;;20.30;17.33;;;6.70;99.90;;;;;;4944934;28;20201;-54
2021/10/11 06:56:48;;;;;;;17.77;14.90;;;6.80;99.90;;;;;;4946414;29;20960;-53
2021/10/11 06:59:14;;;;;;;18.80;15.53;;;6.80;99.90;;;;;;4950317;28;20585;-53
2021/10/11 07:01:42;;;;;;;17.30;14.30;;;7.00;99.90;;;;;;4948154;28;20211;-54
2021/10/11 07:04:09;;;;;;;21.83;14.90;;;7.00;99.90;;;;;;4953654;28;20187;-54
2021/10/11 07:06:34;;;;;;;19.33;14.38;;;7.20;99.90;;;;;;4943430;28;20224;-54
2021/10/11 07:09:00;;;;;;;18.27;14.80;;;6.80;99.90;;;;;;4944023;28;20208;-54
2021/10/11 07:11:26;;;;;;;17.17;15.30;;;7.10;99.90;;;;;;4951673;28;20620;-54
2021/10/11 07:13:51;;;;;;;19.87;16.20;;;7.40;99.90;;;;;;4952047;28;20840;-53
2021/10/11 07:16:17;;;;;;;18.00;14.80;;;7.50;99.90;;;;;;4950046;28;20312;-54
2021/10/11 07:18:43;;;;;;;17.63;14.00;;;7.70;99.90;;;;;;4949311;28;20288;-53
2021/10/11 07:21:08;;;;;;;15.77;14.10;;;7.80;99.90;;;;;;4947982;28;20193;-55
2021/10/11 07:23:34;;;;;;;18.07;15.40;;;7.90;99.90;;;;;;4951987;28;20181;-54
2021/10/11 07:26:02;;;;;;;20.52;15.45;;;8.00;99.90;;;;;;4948255;28;20307;-55
2021/10/11 07:28:29;;;;;;;17.35;15.45;;;7.80;99.90;;;;;;4950296;28;20215;-55
2021/10/11 07:30:55;;;;;;;17.00;14.55;;;7.90;99.90;;;;;;4948345;28;20598;-55
2021/10/11 07:33:22;;;;;;;16.17;13.67;;;8.20;99.90;;;;;;4944177;28;20268;-55
2021/10/11 07:35:48;;;;;;;18.98;15.35;;;8.80;99.90;;;;;;4951710;28;20446;-54
2021/10/11 07:38:14;;;;;;;18.55;14.73;;;8.70;99.90;;;;;;4947458;28;20293;-55
2021/10/11 07:40:39;;;;;;;16.98;14.70;;;8.80;99.90;;;;;;4948091;28;20580;-54
2021/10/11 07:43:05;;;;;;;19.07;15.47;;;8.80;99.90;;;;;;4952267;28;20220;-54
2021/10/11 07:45:31;;;;;;;16.53;14.33;;;9.20;99.90;;;;;;4947335;29;20264;-54
2021/10/11 07:47:57;;;;;;;18.20;13.50;;;9.60;99.90;;;;;;4949125;28;20189;-54
2021/10/11 07:50:23;;;;;;;15.90;13.67;;;9.60;99.90;;;;;;4951089;28;20412;-54
2021/10/11 07:52:48;;;;;;;23.10;14.93;;;9.60;99.90;;;;;;4947610;28;20498;-54
2021/10/11 07:55:14;;;;;;;16.00;13.70;;;9.50;99.90;;;;;;4948675;28;20200;-55
2021/10/11 07:57:41;;;;;;;19.63;14.40;;;9.80;99.90;;;;;;4952362;28;20681;-55
2021/10/11 08:00:09;;;;;;;15.50;12.50;;;10.00;99.90;;;;;;4942993;28;20440;-54
2021/10/11 08:02:35;;;;;;;19.95;14.68;;;9.50;99.90;;;;;;4951025;28;20278;-55
2021/10/11 08:05:01;;;;;;;20.87;15.13;;;10.10;99.90;;;;;;4950085;28;20209;-55
2021/10/11 08:07:27;;;;;;;16.80;15.00;;;10.00;99.90;;;;;;4944714;29;20463;-55
2021/10/11 08:09:53;;;;;;;15.90;13.40;;;10.40;99.90;;;;;;4949562;28;20287;-55
2021/10/11 08:12:18;;;;;;;17.13;14.60;;;10.50;99.90;;;;;;4954155;28;20229;-55
2021/10/11 08:14:47;;;;;;;17.23;13.97;;;10.70;99.90;;;;;;4952340;28;20188;-54
2021/10/11 08:17:13;;;;;;;15.98;14.23;;;10.70;99.90;;;;;;4957089;28;20187;-55
2021/10/11 08:19:39;;;;;;;17.63;14.23;;;11.10;99.90;;;;;;4952850;28;20293;-55
2021/10/11 08:22:05;;;;;;;15.23;12.20;;;11.10;99.90;;;;;;4954221;28;20814;-55
2021/10/11 08:24:31;;;;;;;16.40;13.40;;;11.40;99.90;;;;;;4954985;28;20443;-54
2021/10/11 08:26:57;;;;;;;16.03;14.27;;;11.20;99.90;;;;;;4955176;28;20190;-55
2021/10/11 08:29:22;;;;;;;15.77;14.20;;;11.30;99.90;;;;;;4951962;28;20471;-55
2021/10/11 08:31:48;;;;;;;17.80;14.70;;;11.40;99.90;;;;;;4955262;28;20205;-54
2021/10/11 08:34:14;;;;;;;16.20;14.50;;;11.90;99.90;;;;;;4953706;28;20187;-54
2021/10/11 08:36:39;;;;;;;14.93;13.33;;;12.10;99.90;;;;;;4957671;28;20676;-55
2021/10/11 08:39:05;;;;;;;18.73;15.30;;;12.40;99.70;;;;;;4950371;28;20705;-55
2021/10/11 08:41:31;;;;;;;17.17;14.30;;;12.10;99.20;;;;;;4951619;28;20448;-53
2021/10/11 08:43:57;;;;;;;17.92;14.80;;;12.00;99.50;;;;;;4953626;28;20234;-54
2021/10/11 08:46:23;;;;;;;16.97;14.00;;;12.10;99.60;;;;;;4952811;28;20208;-54
2021/10/11 08:48:49;;;;;;;20.30;14.50;;;12.20;98.90;;;;;;4952501;28;20525;-53
2021/10/11 08:51:15;;;;;;;19.23;14.23;;;12.50;98.70;;;;;;4951064;28;20238;-52
2021/10/11 08:53:41;;;;;;;18.73;14.00;;;12.30;98.50;;;;;;4949152;28;20191;-54
2021/10/11 08:56:11;;;;;;;15.90;13.20;;;12.50;98.30;;;;;;4952706;28;20242;-54
2021/10/11 08:58:48;;;;;;;16.45;14.85;;;12.40;97.70;;;;;;4952741;28;20818;-54
2021/10/11 09:01:14;;;;;;;17.48;13.63;;;12.90;98.20;;;;;;4955658;28;20195;-56
2021/10/11 09:03:41;;;;;;;18.48;14.20;;;12.80;97.70;;;;;;4955087;28;20185;-55
2021/10/11 09:06:10;;;;;;;18.33;14.07;;;12.90;97.70;;;;;;4953561;28;20201;-52
2021/10/11 09:08:37;;;;;;;16.13;14.40;;;13.10;97.40;;;;;;4947756;28;20197;-53
2021/10/11 09:11:07;;;;;;;17.48;14.32;;;13.20;97.10;;;;;;4957042;28;20196;-53
2021/10/11 09:13:41;;;;;;;16.88;13.63;;;13.20;96.80;;;;;;4953347;28;20191;-53
2021/10/11 09:16:22;;;;;;;18.55;14.50;;;13.50;96.10;;;;;;4951455;28;20251;-53
2021/10/11 09:18:54;;;;;;;16.60;14.48;;;13.50;96.40;;;;;;4950348;28;20216;-54
2021/10/11 09:21:31;;;;;;;17.30;13.43;;;13.50;96.20;;;;;;4947767;28;20223;-54
2021/10/11 09:24:06;;;;;;;17.13;15.27;;;14.00;96.00;;;;;;4949621;28;20584;-54
2021/10/11 09:27:11;;;;;;;14.77;13.27;;;13.80;95.40;;;;;;4952622;29;20231;-54
2021/10/11 09:29:43;;;;;;;17.08;12.98;;;14.00;95.20;;;;;;4909413;29;20198;-54
2021/10/11 09:32:15;;;;;;;16.25;14.65;;;13.90;94.80;;;;;;4910144;29;20175;-54
2021/10/11 09:34:42;;;;;;;15.15;13.55;;;13.70;94.70;;;;;;4923866;29;20248;-55
2021/10/11 09:37:13;;;;;;;17.55;14.70;;;14.30;95.00;;;;;;4952289;28;20272;-54
2021/10/11 09:39:40;;;;;;;18.10;14.05;;;14.40;94.60;;;;;;4949490;28;20205;-54
2021/10/11 09:42:10;;;;;;;20.33;14.70;;;14.60;93.90;;;;;;4946570;28;20414;-54
2021/10/11 09:44:36;;;;;;;15.32;13.73;;;15.00;93.80;;;;;;4949376;28;20662;-54
2021/10/11 09:49:27;;;;;;;17.33;14.47;;;14.90;92.50;;;;;;4951858;28;20209;-53
2021/10/11 09:51:55;;;;;;;16.47;14.77;;;15.30;92.70;;;;;;4951974;28;20188;-53
2021/10/11 09:54:21;;;;;;;16.67;13.63;;;14.90;92.70;;;;;;4950285;28;20211;-55
2021/10/11 09:56:48;;;;;;;16.77;14.00;;;15.10;92.30;;;;;;4951391;28;20176;-55
2021/10/11 09:59:16;;;;;;;16.17;14.38;;;15.10;92.20;;;;;;4950250;28;20219;-55
2021/10/11 10:01:42;;;;;;;19.83;14.73;;;15.10;92.20;;;;;;4941985;28;20247;-55
2021/10/11 10:04:20;;;;;;;19.23;14.30;;;15.10;92.30;;;;;;4951037;28;20192;-54
2021/10/11 10:06:47;;;;;;;15.18;13.48;;;15.30;92.30;;;;;;4952454;28;20359;-55
2021/10/11 10:09:16;;;;;;;16.80;14.32;;;14.80;92.10;;;;;;4950871;28;20208;-55
2021/10/11 10:11:42;;;;;;;17.85;13.52;;;14.60;92.20;;;;;;4952109;28;20188;-54
2021/10/11 10:14:22;;;;;;;15.57;13.85;;;14.60;92.80;;;;;;4951982;28;20212;-55
2021/10/11 10:16:49;;;;;;;14.32;12.93;;;14.80;92.60;;;;;;4951217;28;20192;-54
2021/10/11 10:19:15;;;;;;;16.77;14.77;;;15.20;92.60;;;;;;4952239;28;20209;-54
2021/10/11 10:21:41;;;;;;;16.57;13.87;;;14.90;92.30;;;;;;4949242;28;20204;-55
2021/10/11 10:24:07;;;;;;;14.68;13.10;;;14.40;92.20;;;;;;4949232;28;20192;-54
2021/10/11 10:26:35;;;;;;;14.95;13.15;;;14.70;92.20;;;;;;4951724;28;20308;-55
2021/10/11 10:29:12;;;;;;;20.73;13.40;;;15.30;92.40;;;;;;4951198;28;20216;-54
2021/10/11 10:31:38;;;;;;;18.88;14.90;;;15.30;91.90;;;;;;4945277;28;20185;-55
2021/10/11 10:34:24;;;;;;;15.90;14.30;;;15.00;92.80;;;;;;4951643;28;20516;-54
2021/10/11 10:36:59;;;;;;;20.00;15.35;;;15.10;92.20;;;;;;4948090;28;20197;-54
2021/10/11 10:39:44;;;;;;;15.73;13.30;;;15.50;91.90;;;;;;4950112;28;20677;-54
2021/10/11 10:42:27;;;;;;;15.88;13.75;;;15.60;91.90;;;;;;4952093;28;20224;-55
2021/10/11 10:44:54;;;;;;;14.80;13.15;;;15.60;91.40;;;;;;4944743;28;20190;-55
2021/10/11 10:47:39;;;;;;;18.73;14.20;;;15.60;91.30;;;;;;4951367;28;20189;-55
2021/10/11 10:50:14;;;;;;;14.95;13.35;;;15.40;90.60;;;;;;4947442;28;20223;-56
2021/10/11 10:52:40;;;;;;;15.40;13.80;;;16.50;90.10;;;;;;4952742;28;20282;-56
2021/10/11 10:55:06;;;;;;;15.63;14.13;;;17.00;88.60;;;;;;4948013;28;20601;-57
2021/10/11 10:57:32;;;;;;;17.58;14.35;;;17.50;86.20;;;;;;4951417;28;20467;-56
2021/10/11 11:00:01;;;;;;;15.77;14.27;;;18.10;84.00;;;;;;4950219;28;20313;-56
2021/10/11 11:02:28;;;;;;;15.85;14.27;;;17.50;83.70;;;;;;4951714;28;20701;-56
2021/10/11 11:05:00;;;;;;;17.13;14.70;;;17.40;84.30;;;;;;4951729;28;20185;-56
2021/10/11 11:07:36;;;;;;;17.92;16.02;;;17.40;84.40;;;;;;4948826;28;20683;-56
2021/10/11 11:10:21;;;;;;;18.33;15.85;;;16.80;85.20;;;;;;4950552;28;20216;-56
2021/10/11 11:12:58;;;;;;;16.40;14.77;;;16.60;87.50;;;;;;4950537;28;20255;-56
2021/10/11 11:15:23;;;;;;;18.63;14.55;;;17.00;87.50;;;;;;4957363;28;20231;-56
2021/10/11 11:17:49;;;;;;;17.23;15.40;;;17.10;86.20;;;;;;4951086;28;20666;-56
2021/10/11 11:20:23;;;;;;;17.50;14.50;;;16.70;86.20;;;;;;4953298;28;20276;-56
2021/10/11 11:22:50;;;;;;;16.83;14.75;;;16.50;87.70;;;;;;4942435;28;20200;-56
2021/10/11 11:25:16;;;;;;;18.27;15.05;;;16.60;88.10;;;;;;4949614;28;20208;-54
2021/10/11 11:27:44;;;;;;;15.17;13.57;;;16.80;88.60;;;;;;4946940;28;20558;-57
2021/10/11 11:30:16;;;;;;;16.50;14.75;;;16.50;87.60;;;;;;4946568;28;20185;-53
2021/10/11 11:32:54;;;;;;;17.00;12.23;;;16.60;88.60;;;;;;4945158;28;20223;-55
2021/10/11 11:35:24;;;;;;;17.25;15.45;;;16.30;86.10;;;;;;4953977;28;20188;-54
2021/10/11 11:37:54;;;;;;;16.13;14.45;;;16.10;87.30;;;;;;4950820;28;20252;-54
2021/10/11 11:40:23;;;;;;;15.98;13.73;;;15.80;88.20;;;;;;4949488;28;20187;-54
2021/10/11 11:42:50;;;;;;;17.58;13.02;;;16.10;88.40;;;;;;4951377;28;20209;-54
2021/10/11 11:45:16;;;;;;;15.98;14.27;;;16.40;87.70;;;;;;4948079;28;20213;-53
2021/10/11 11:47:42;;;;;;;14.27;12.88;;;15.70;87.20;;;;;;4953498;28;20177;-53
2021/10/11 11:50:23;;;;;;;18.33;14.43;;;15.80;89.50;;;;;;4953851;28;20216;-55
2021/10/11 11:52:59;;;;;;;14.80;13.23;;;15.50;89.60;;;;;;4946450;29;20932;-55
2021/10/11 11:55:25;;;;;;;16.40;13.73;;;15.90;90.10;;;;;;4955740;28;20188;-54
2021/10/11 11:57:50;;;;;;;15.40;13.37;;;15.90;89.30;;;;;;4959761;28;20192;-54
2021/10/11 12:00:17;;;;;;;14.70;13.10;;;15.90;89.20;;;;;;4954150;28;20600;-54
2021/10/11 12:02:45;;;;;;;15.85;14.00;;;16.10;89.40;;;;;;4962192;28;20223;-54
2021/10/11 12:05:11;;;;;;;18.00;13.98;;;16.30;89.20;;;;;;4954173;28;20216;-54
2021/10/11 12:07:41;;;;;;;16.95;14.23;;;16.20;88.70;;;;;;4953756;28;20248;-54
2021/10/11 12:10:08;;;;;;;15.13;13.63;;;16.30;88.30;;;;;;4954056;28;20248;-54
2021/10/11 12:12:35;;;;;;;16.13;13.50;;;16.70;88.80;;;;;;4954214;28;20290;-55
2021/10/11 12:15:03;;;;;;;17.77;15.05;;;16.50;87.70;;;;;;4944756;28;20182;-55
2021/10/11 12:17:37;;;;;;;16.50;13.43;;;16.50;88.10;;;;;;4962983;28;20242;-55
2021/10/11 12:20:03;;;;;;;16.20;14.45;;;16.10;87.80;;;;;;4960314;28;20208;-55
2021/10/11 12:22:30;;;;;;;16.77;15.07;;;16.30;89.70;;;;;;4962130;28;20637;-55
2021/10/11 12:25:08;;;;;;;16.00;14.40;;;16.20;89.30;;;;;;4946597;28;20188;-54
2021/10/11 12:27:34;;;;;;;16.90;14.43;;;16.40;89.40;;;;;;4952470;28;20185;-56
2021/10/11 12:30:05;;;;;;;15.30;13.80;;;16.60;89.30;;;;;;4951654;28;20205;-54
2021/10/11 12:32:33;;;;;;;15.20;13.65;;;16.50;88.10;;;;;;4956030;28;20216;-54
2021/10/11 12:35:00;;;;;;;14.23;12.82;;;16.30;88.40;;;;;;4952430;28;20549;-55
2021/10/11 12:37:38;;;;;;;14.57;13.07;;;16.30;89.20;;;;;;4954043;29;20178;-55